createdAt,value
2023-02-21T00:01:59.939Z,8.00
2023-02-21T00:04:45.467Z,7.95
2023-02-21T00:07:30.945Z,7.55
2023-02-21T00:10:16.680Z,8.38
2023-02-21T00:13:02.000Z,7.60
2023-02-21T00:15:47.449Z,7.55
2023-02-21T00:18:32.996Z,7.30
2023-02-21T00:21:18.615Z,7.65
2023-02-21T00:24:04.564Z,7.90
2023-02-21T00:26:50.178Z,7.00
2023-02-21T00:29:35.634Z,7.45
2023-02-21T00:32:21.228Z,7.32
2023-02-21T00:35:06.906Z,7.05
2023-02-21T00:37:52.422Z,7.38
2023-02-21T00:40:37.844Z,7.13
2023-02-21T00:43:23.425Z,7.57
2023-02-21T00:46:09.120Z,7.18
2023-02-21T00:48:54.684Z,7.15
2023-02-21T00:51:40.045Z,7.75
2023-02-21T00:54:25.660Z,7.70
2023-02-21T00:57:11.053Z,7.30
2023-02-21T00:59:56.709Z,6.75
2023-02-21T01:02:42.463Z,6.70
2023-02-21T01:05:28.243Z,7.07
2023-02-21T01:08:13.672Z,6.68
2023-02-21T01:10:59.131Z,6.78
2023-02-21T01:13:44.833Z,6.40
2023-02-21T01:16:30.458Z,6.53
2023-02-21T01:19:16.091Z,6.25
2023-02-21T01:22:01.623Z,6.68
2023-02-21T01:24:47.079Z,7.20
2023-02-21T01:27:32.692Z,6.90
2023-02-21T01:30:18.237Z,7.13
2023-02-21T01:33:03.658Z,7.13
2023-02-21T01:35:49.155Z,7.18
2023-02-21T01:38:34.463Z,7.55
2023-02-21T01:41:20.013Z,7.22
2023-02-21T01:44:23.407Z,7.95
2023-02-21T01:47:08.849Z,8.10
2023-02-21T01:49:58.424Z,7.82
2023-02-21T01:52:44.524Z,6.60
2023-02-21T01:55:30.676Z,6.90
2023-02-21T01:58:35.129Z,7.68
2023-02-21T02:04:02.724Z,6.50
2023-02-21T02:06:48.198Z,6.20
2023-02-21T02:09:38.508Z,6.43
2023-02-21T02:12:23.521Z,6.00
2023-02-21T02:15:16.795Z,6.30
2023-02-21T02:17:47.724Z,6.50
2023-02-21T02:20:38.570Z,6.13
2023-02-21T02:23:27.551Z,7.13
2023-02-21T02:26:19.701Z,7.15
2023-02-21T02:29:20.632Z,7.28
2023-02-21T02:32:12.353Z,7.18
2023-02-21T02:35:00.731Z,6.53
2023-02-21T02:37:40.911Z,7.35
2023-02-21T02:40:19.699Z,6.55
2023-02-21T02:43:03.772Z,6.30
2023-02-21T02:45:38.071Z,6.68
2023-02-21T02:48:21.488Z,7.07
2023-02-21T02:50:51.123Z,7.07
2023-02-21T02:53:22.149Z,6.00
2023-02-21T02:56:03.832Z,6.88
2023-02-21T02:58:45.777Z,6.40
2023-02-21T03:01:34.269Z,7.30
2023-02-21T03:04:24.002Z,6.95
2023-02-21T03:06:56.912Z,6.47
2023-02-21T03:09:31.063Z,6.97
2023-02-21T03:12:30.821Z,7.20
2023-02-21T03:15:39.838Z,6.63
2023-02-21T03:18:14.690Z,7.20
2023-02-21T03:20:43.606Z,6.70
2023-02-21T03:23:15.048Z,6.28
2023-02-21T03:25:45.786Z,6.60
2023-02-21T03:28:13.583Z,6.40
2023-02-21T03:30:44.194Z,6.15
2023-02-21T03:33:11.513Z,6.03
2023-02-21T03:35:38.790Z,6.10
2023-02-21T03:38:06.072Z,6.18
2023-02-21T03:40:34.449Z,6.03
2023-02-21T03:43:03.292Z,5.75
2023-02-21T03:45:30.490Z,6.03
2023-02-21T03:47:57.475Z,5.65
2023-02-21T03:50:24.369Z,6.03
2023-02-21T03:52:51.519Z,5.40
2023-02-21T03:55:19.245Z,5.78
2023-02-21T03:57:46.614Z,5.30
2023-02-21T04:00:15.010Z,5.45
2023-02-21T04:02:42.161Z,5.57
2023-02-21T04:05:09.286Z,5.95
2023-02-21T04:07:36.296Z,5.28
2023-02-21T04:10:03.793Z,6.00
2023-02-21T04:12:30.793Z,5.20
2023-02-21T04:14:58.774Z,6.18
2023-02-21T04:17:26.278Z,5.40
2023-02-21T04:19:53.228Z,5.82
2023-02-21T04:22:22.199Z,5.28
2023-02-21T04:24:49.369Z,5.55
2023-02-21T04:27:16.897Z,5.75
2023-02-21T04:29:45.327Z,6.00
2023-02-21T04:32:12.897Z,6.07
2023-02-21T04:34:40.043Z,5.45
2023-02-21T04:37:06.998Z,6.10
2023-02-21T04:39:33.860Z,6.07
2023-02-21T04:42:00.900Z,6.78
2023-02-21T04:44:27.731Z,6.15
2023-02-21T04:46:54.770Z,6.70
2023-02-21T04:49:21.690Z,7.85
2023-02-21T04:51:48.623Z,7.40
2023-02-21T04:54:15.562Z,7.20
2023-02-21T04:56:42.432Z,6.95
2023-02-21T04:59:09.517Z,9.77
2023-02-21T05:01:36.551Z,8.60
2023-02-21T05:04:04.061Z,7.85
2023-02-21T05:06:32.493Z,8.02
2023-02-21T05:09:00.018Z,7.18
2023-02-21T05:11:28.707Z,7.93
2023-02-21T05:13:55.774Z,10.88
2023-02-21T05:16:22.978Z,9.60
2023-02-21T05:18:49.971Z,8.90
2023-02-21T05:21:18.293Z,9.13
2023-02-21T05:23:56.306Z,8.40
2023-02-21T05:26:36.312Z,9.50
2023-02-21T05:29:04.489Z,9.80
2023-02-21T05:31:31.432Z,9.18
2023-02-21T05:33:59.510Z,9.57
2023-02-21T05:36:26.509Z,10.25
2023-02-21T05:38:55.719Z,12.95
2023-02-21T05:41:23.310Z,9.75
2023-02-21T05:43:50.881Z,8.52
2023-02-21T05:46:20.524Z,8.85
2023-02-21T05:48:47.514Z,8.70
2023-02-21T05:51:16.119Z,7.53
2023-02-21T05:53:43.181Z,7.22
2023-02-21T05:56:10.735Z,7.57
2023-02-21T05:58:37.895Z,7.72
2023-02-21T06:01:06.999Z,8.15
2023-02-21T06:03:34.211Z,7.70
2023-02-21T06:06:02.699Z,9.05
2023-02-21T06:08:29.792Z,9.07
2023-02-21T06:10:57.820Z,8.82
2023-02-21T06:13:24.968Z,9.00
2023-02-21T06:15:52.012Z,8.98
2023-02-21T06:18:19.264Z,9.35
2023-02-21T06:20:46.166Z,9.15
2023-02-21T06:23:13.112Z,10.13
2023-02-21T06:25:42.632Z,9.23
2023-02-21T06:28:09.708Z,8.48
2023-02-21T06:30:36.702Z,9.93
2023-02-21T06:33:04.910Z,7.88
2023-02-21T06:35:32.036Z,7.85
2023-02-21T06:37:58.853Z,8.40
2023-02-21T06:40:25.766Z,7.78
2023-02-21T06:42:55.098Z,6.53
2023-02-21T06:45:21.894Z,8.07
2023-02-21T06:47:48.728Z,6.95
2023-02-21T06:50:15.835Z,7.55
2023-02-21T06:52:43.326Z,8.15
2023-02-21T06:55:10.222Z,14.23
2023-02-21T06:57:37.268Z,6.90
2023-02-21T07:00:06.388Z,8.43
2023-02-21T07:02:34.908Z,8.52
2023-02-21T07:05:01.797Z,9.02
2023-02-21T07:07:28.591Z,12.07
2023-02-21T07:10:14.164Z,13.43
2023-02-21T07:12:41.017Z,8.20
2023-02-21T07:15:08.287Z,7.70
2023-02-21T07:17:35.275Z,7.18
2023-02-21T07:20:02.399Z,6.13
2023-02-21T07:22:29.314Z,7.50
2023-02-21T07:24:57.209Z,6.53
2023-02-21T07:27:24.011Z,6.18
2023-02-21T07:29:52.029Z,5.72
2023-02-21T07:32:19.346Z,5.68
2023-02-21T07:34:47.809Z,6.47
2023-02-21T07:37:15.117Z,6.90
2023-02-21T07:39:42.445Z,6.30
2023-02-21T07:42:09.409Z,6.93
2023-02-21T07:44:36.497Z,6.72
2023-02-21T07:47:03.489Z,7.15
2023-02-21T07:49:30.437Z,6.45
2023-02-21T07:51:57.503Z,7.38
2023-02-21T07:54:24.851Z,7.78
2023-02-21T07:56:52.358Z,7.43
2023-02-21T07:59:19.320Z,7.50
2023-02-21T08:01:47.908Z,6.68
2023-02-21T08:04:15.135Z,6.30
2023-02-21T08:06:42.145Z,6.47
2023-02-21T08:09:09.158Z,5.50
2023-02-21T08:11:36.920Z,5.78
2023-02-21T08:14:05.441Z,5.50
2023-02-21T08:16:34.965Z,7.00
2023-02-21T08:19:02.395Z,5.88
2023-02-21T08:21:29.322Z,7.75
2023-02-21T08:23:56.453Z,7.20
2023-02-21T08:26:24.981Z,6.50
2023-02-21T08:28:51.916Z,6.22
2023-02-21T08:31:19.256Z,5.68
2023-02-21T08:33:46.495Z,5.55
2023-02-21T08:36:15.386Z,5.85
2023-02-21T08:38:42.294Z,6.07
2023-02-21T08:41:10.618Z,8.85
2023-02-21T08:43:37.745Z,6.95
2023-02-21T08:46:05.061Z,7.47
2023-02-21T08:48:31.923Z,6.57
2023-02-21T08:50:58.763Z,6.60
2023-02-21T08:53:26.101Z,5.25
2023-02-21T08:55:52.913Z,5.65
2023-02-21T08:58:19.825Z,5.70
2023-02-21T09:00:46.736Z,5.75
2023-02-21T09:03:13.677Z,5.72
2023-02-21T09:05:40.834Z,5.07
2023-02-21T09:08:10.587Z,5.70
2023-02-21T09:10:37.629Z,5.63
2023-02-21T09:13:06.575Z,5.65
2023-02-21T09:15:33.653Z,4.75
2023-02-21T09:18:01.418Z,4.95
2023-02-21T09:20:28.401Z,4.82
2023-02-21T09:22:57.121Z,6.53
2023-02-21T09:25:25.708Z,5.65
2023-02-21T09:27:55.747Z,6.00
2023-02-21T09:30:27.147Z,5.25
2023-02-21T09:32:54.956Z,5.85
2023-02-21T09:35:22.511Z,6.45
2023-02-21T09:37:49.434Z,5.28
2023-02-21T09:40:34.293Z,5.70
2023-02-21T09:43:03.629Z,5.90
2023-02-21T09:45:36.462Z,5.68
2023-02-21T09:48:14.405Z,5.55
2023-02-21T09:50:49.293Z,4.80
2023-02-21T09:53:24.926Z,5.18
2023-02-21T09:55:55.189Z,5.20
2023-02-21T09:58:22.315Z,4.70
2023-02-21T10:00:50.523Z,4.00
2023-02-21T10:03:38.361Z,4.03
2023-02-21T10:06:17.580Z,4.35
2023-02-21T10:09:28.556Z,4.35
2023-02-21T10:12:18.485Z,3.85
2023-02-21T10:15:04.507Z,4.22
2023-02-21T10:18:03.754Z,3.65
2023-02-21T10:20:37.478Z,4.15
2023-02-21T10:23:12.209Z,4.10
2023-02-21T10:25:43.129Z,4.03
2023-02-21T10:28:18.346Z,3.60
2023-02-21T10:30:47.391Z,3.83
2023-02-21T10:33:14.488Z,3.70
2023-02-21T10:35:42.731Z,2.72
2023-02-21T10:38:17.056Z,3.90
2023-02-21T10:41:04.347Z,4.13
2023-02-21T10:43:36.508Z,3.33
2023-02-21T10:46:18.468Z,2.85
2023-02-21T10:48:50.626Z,2.55
2023-02-21T10:51:33.460Z,2.88
2023-02-21T10:54:22.199Z,2.80
2023-02-21T10:56:52.879Z,3.58
2023-02-21T10:59:32.806Z,4.28
2023-02-21T11:02:05.283Z,3.42
2023-02-21T11:04:35.993Z,3.67
2023-02-21T11:07:27.348Z,3.00
2023-02-21T11:09:56.036Z,3.63
2023-02-21T11:12:26.052Z,3.53
2023-02-21T11:15:29.008Z,3.90
2023-02-21T11:18:17.458Z,3.85
2023-02-21T11:20:45.918Z,2.95
2023-02-21T11:23:31.553Z,4.65
2023-02-21T11:26:07.569Z,3.97
2023-02-21T11:28:47.637Z,4.47
2023-02-21T11:31:28.820Z,3.50
2023-02-21T11:33:59.856Z,4.18
2023-02-21T11:36:32.976Z,4.35
2023-02-21T11:39:41.643Z,3.45
2023-02-21T11:42:29.045Z,3.58
2023-02-21T11:45:22.097Z,3.10
2023-02-21T11:48:01.681Z,3.78
2023-02-21T11:50:40.980Z,3.55
2023-02-21T11:53:31.400Z,4.22
2023-02-21T11:55:58.412Z,2.70
2023-02-21T11:58:42.711Z,2.95
2023-02-21T12:01:22.841Z,3.38
2023-02-21T12:04:10.859Z,3.08
2023-02-21T12:06:54.809Z,3.47
2023-02-21T12:09:43.456Z,3.72
2023-02-21T12:13:00.316Z,3.15
2023-02-21T12:15:43.532Z,3.72
2023-02-21T12:18:35.237Z,3.03
2023-02-21T12:21:15.100Z,4.70
2023-02-21T12:23:59.972Z,3.95
2023-02-21T12:26:57.081Z,3.80
2023-02-21T12:29:35.996Z,3.50
2023-02-21T12:32:06.162Z,4.05
2023-02-21T12:34:42.048Z,3.97
2023-02-21T12:37:34.542Z,3.27
2023-02-21T12:40:26.742Z,3.70
2023-02-21T12:43:09.723Z,4.75
2023-02-21T12:45:51.503Z,3.70
2023-02-21T12:48:41.597Z,3.63
2023-02-21T12:51:17.196Z,2.85
2023-02-21T12:53:55.399Z,3.50
2023-02-21T12:56:33.247Z,3.10
2023-02-21T12:59:08.006Z,3.80
2023-02-21T13:01:44.780Z,3.20
2023-02-21T13:04:24.310Z,3.70
2023-02-21T13:07:01.553Z,4.90
2023-02-21T13:09:37.312Z,4.38
2023-02-21T13:12:13.976Z,4.33
2023-02-21T13:14:56.506Z,4.22
2023-02-21T13:17:26.027Z,4.53
2023-02-21T13:20:19.253Z,4.20
2023-02-21T13:23:08.746Z,3.85
2023-02-21T13:25:41.689Z,3.90
2023-02-21T13:28:30.256Z,4.28
2023-02-21T13:31:03.846Z,4.30
2023-02-21T13:33:44.555Z,4.15
2023-02-21T13:36:20.738Z,4.03
2023-02-21T13:39:13.248Z,4.55
2023-02-21T13:41:45.365Z,3.15
2023-02-21T13:44:30.726Z,3.63
2023-02-21T13:47:22.258Z,3.70
2023-02-21T13:49:56.714Z,4.07
2023-02-21T13:52:35.519Z,4.78
2023-02-21T13:55:21.714Z,4.70
2023-02-21T13:58:12.151Z,4.33
2023-02-21T14:00:39.131Z,4.53
2023-02-21T14:03:14.188Z,4.13
2023-02-21T14:05:47.729Z,4.03
2023-02-21T14:08:20.430Z,3.72
2023-02-21T14:10:56.445Z,4.75
2023-02-21T14:13:37.108Z,4.35
2023-02-21T14:16:11.197Z,4.15
2023-02-21T14:18:50.332Z,4.07
2023-02-21T14:21:27.192Z,5.30
2023-02-21T14:24:01.721Z,4.65
2023-02-21T14:26:45.060Z,5.28
2023-02-21T14:29:46.477Z,5.38
2023-02-21T14:32:13.486Z,4.43
2023-02-21T14:34:54.568Z,5.40
2023-02-21T14:37:45.300Z,4.80
2023-02-21T14:40:15.216Z,4.82
2023-02-21T14:43:02.235Z,4.88
2023-02-21T14:45:35.012Z,5.38
2023-02-21T14:48:27.160Z,4.97
2023-02-21T14:51:19.660Z,5.13
2023-02-21T14:54:41.338Z,6.05
2023-02-21T14:57:35.158Z,5.75
2023-02-21T15:00:27.205Z,6.15
2023-02-21T15:03:22.008Z,6.07
2023-02-21T15:06:03.426Z,6.60
2023-02-21T15:08:50.701Z,9.43
2023-02-21T15:11:37.791Z,7.22
2023-02-21T15:14:41.813Z,6.15
2023-02-21T15:17:19.682Z,5.95
2023-02-21T15:19:47.848Z,6.25
2023-02-21T15:22:18.688Z,6.82
2023-02-21T15:25:11.525Z,7.90
2023-02-21T15:27:54.016Z,7.35
2023-02-21T15:30:33.671Z,6.28
2023-02-21T15:33:27.058Z,6.78
2023-02-21T15:36:09.373Z,8.45
2023-02-21T15:38:48.338Z,9.95
2023-02-21T15:41:34.517Z,10.00
2023-02-21T15:44:09.414Z,10.27
2023-02-21T15:47:05.709Z,10.32
2023-02-21T15:49:42.101Z,10.02
2023-02-21T15:52:27.684Z,11.20
2023-02-21T15:55:20.816Z,9.30
2023-02-21T15:58:08.096Z,10.65
2023-02-21T16:01:07.249Z,10.70
2023-02-21T16:03:45.888Z,11.48
2023-02-21T16:06:29.304Z,11.73
2023-02-21T16:08:59.267Z,12.65
2023-02-21T16:11:53.787Z,14.07
2023-02-21T16:14:41.868Z,15.43
2023-02-21T16:17:24.368Z,16.15
2023-02-21T16:19:56.427Z,15.10
2023-02-21T16:22:59.261Z,13.50
2023-02-21T16:25:25.389Z,12.43
2023-02-21T16:27:55.871Z,13.73
2023-02-21T16:30:29.530Z,15.40
2023-02-21T16:33:06.555Z,13.95
2023-02-21T16:35:34.527Z,13.45
2023-02-21T16:38:02.197Z,13.05
2023-02-21T16:40:31.702Z,12.75
2023-02-21T16:42:59.274Z,12.18
2023-02-21T16:45:29.244Z,11.32
2023-02-21T16:48:06.971Z,12.80
2023-02-21T16:50:37.202Z,10.57
2023-02-21T16:53:06.085Z,9.77
2023-02-21T16:55:33.193Z,10.13
2023-02-21T16:58:07.589Z,9.95
2023-02-21T17:00:37.047Z,10.40
2023-02-21T17:03:04.447Z,10.73
2023-02-21T17:05:31.423Z,11.77
2023-02-21T17:07:59.004Z,12.82
2023-02-21T17:10:26.489Z,14.73
2023-02-21T17:12:53.430Z,10.55
2023-02-21T17:15:22.540Z,16.80
2023-02-21T17:17:53.408Z,16.60
2023-02-21T17:20:22.619Z,19.95
2023-02-21T17:22:51.235Z,15.90
2023-02-21T17:25:20.136Z,15.05
2023-02-21T17:27:47.623Z,15.02
2023-02-21T17:30:15.897Z,11.52
2023-02-21T17:32:43.841Z,12.05
2023-02-21T17:35:10.827Z,10.90
2023-02-21T17:37:38.431Z,13.23
2023-02-21T17:40:06.743Z,13.25
2023-02-21T17:42:34.658Z,13.43
2023-02-21T17:45:02.451Z,15.30
2023-02-21T17:47:29.811Z,13.52
2023-02-21T17:50:00.795Z,12.93
2023-02-21T17:52:28.906Z,14.02
2023-02-21T17:54:56.129Z,15.93
2023-02-21T17:57:26.932Z,38.40
2023-02-21T17:59:53.893Z,27.13
2023-02-21T18:02:20.932Z,30.08
2023-02-21T18:04:50.064Z,37.53
2023-02-21T18:07:16.976Z,44.47
2023-02-21T18:09:47.354Z,48.55
2023-02-21T18:12:14.301Z,62.47
2023-02-21T18:14:41.341Z,48.50
2023-02-21T18:17:09.516Z,46.10
2023-02-21T18:19:38.183Z,49.60
2023-02-21T18:22:06.509Z,51.90
2023-02-21T18:24:33.493Z,53.97
2023-02-21T18:27:00.587Z,55.15
2023-02-21T18:29:27.636Z,54.05
2023-02-21T18:31:54.813Z,52.88
2023-02-21T18:34:22.471Z,48.15
2023-02-21T18:36:51.370Z,52.28
2023-02-21T18:39:19.467Z,49.67
2023-02-21T18:41:47.032Z,42.65
2023-02-21T18:44:14.556Z,45.92
2023-02-21T18:46:46.162Z,43.55
2023-02-21T18:49:14.766Z,43.58
2023-02-21T18:51:42.714Z,45.38
2023-02-21T18:54:09.591Z,45.80
2023-02-21T18:56:36.767Z,55.58
2023-02-21T18:59:03.645Z,47.35
2023-02-21T19:01:30.579Z,45.95
2023-02-21T19:04:16.063Z,43.58
2023-02-21T19:06:43.303Z,39.65
2023-02-21T19:09:10.762Z,45.67
2023-02-21T19:11:37.932Z,36.67
2023-02-21T19:14:05.848Z,34.45
2023-02-21T19:16:34.290Z,29.92
2023-02-21T19:19:03.966Z,28.50
2023-02-21T19:21:31.355Z,26.40
2023-02-21T19:23:58.605Z,25.13
2023-02-21T19:26:29.652Z,24.15
2023-02-21T19:28:56.980Z,24.40
2023-02-21T19:31:24.452Z,20.80
2023-02-21T19:33:52.012Z,28.85
2023-02-21T19:36:21.725Z,31.17
2023-02-21T19:38:49.167Z,36.53
2023-02-21T19:41:18.928Z,40.17
2023-02-21T19:43:46.387Z,38.83
2023-02-21T19:46:21.963Z,42.85
2023-02-21T19:48:49.284Z,37.65
2023-02-21T19:51:18.682Z,43.95
2023-02-21T19:53:46.297Z,66.30
2023-02-21T19:56:15.054Z,68.43
2023-02-21T19:58:43.910Z,54.85
2023-02-21T20:01:12.628Z,52.92
2023-02-21T20:03:40.961Z,60.15
2023-02-21T20:06:08.864Z,62.35
2023-02-21T20:08:36.090Z,54.25
2023-02-21T20:11:03.007Z,53.90
2023-02-21T20:13:31.622Z,54.80
2023-02-21T20:15:58.828Z,52.22
2023-02-21T20:18:25.815Z,60.55
2023-02-21T20:20:52.719Z,57.58
2023-02-21T20:23:19.723Z,60.35
2023-02-21T20:25:49.567Z,75.32
2023-02-21T20:28:17.570Z,70.28
2023-02-21T20:30:44.595Z,65.60
2023-02-21T20:33:11.646Z,68.13
2023-02-21T20:35:38.799Z,70.15
2023-02-21T20:38:06.581Z,73.40
2023-02-21T20:40:35.291Z,73.05
2023-02-21T20:43:02.727Z,62.50
2023-02-21T20:45:29.810Z,71.55
2023-02-21T20:47:58.045Z,72.13
2023-02-21T20:50:26.183Z,65.35
2023-02-21T20:52:55.027Z,73.25
2023-02-21T20:55:22.694Z,53.97
2023-02-21T20:57:50.896Z,47.92
2023-02-21T21:00:23.795Z,40.72
2023-02-21T21:02:51.875Z,45.63
2023-02-21T21:05:20.764Z,47.88
2023-02-21T21:07:48.179Z,55.35
2023-02-21T21:10:19.276Z,56.08
2023-02-21T21:12:46.344Z,59.60
2023-02-21T21:15:14.628Z,58.60
2023-02-21T21:17:42.383Z,60.75
2023-02-21T21:20:14.547Z,61.72
2023-02-21T21:22:41.929Z,58.55
2023-02-21T21:25:09.906Z,60.00
2023-02-21T21:27:37.872Z,65.70
2023-02-21T21:30:07.550Z,62.20
2023-02-21T21:32:34.834Z,62.17
2023-02-21T21:35:06.954Z,64.32
2023-02-21T21:37:35.921Z,61.97
2023-02-21T21:40:19.225Z,64.28
2023-02-21T21:42:50.221Z,66.88
2023-02-21T21:45:19.830Z,70.75
2023-02-21T21:47:54.953Z,69.10
2023-02-21T21:50:22.635Z,70.20
2023-02-21T21:52:53.534Z,70.18
2023-02-21T21:55:26.711Z,69.07
2023-02-21T21:57:54.553Z,72.38
2023-02-21T22:00:26.574Z,67.80
2023-02-21T22:02:57.709Z,62.97
2023-02-21T22:05:32.911Z,61.95
2023-02-21T22:08:00.256Z,54.63
2023-02-21T22:10:28.194Z,55.22
2023-02-21T22:12:56.832Z,54.88
2023-02-21T22:15:26.113Z,55.53
2023-02-21T22:17:53.311Z,49.20
2023-02-21T22:20:31.380Z,54.50
2023-02-21T22:22:58.948Z,48.50
2023-02-21T22:25:28.232Z,65.18
2023-02-21T22:27:55.522Z,60.75
2023-02-21T22:30:23.245Z,52.42
2023-02-21T22:32:50.551Z,55.88
2023-02-21T22:35:20.141Z,61.05
2023-02-21T22:37:52.902Z,55.72
2023-02-21T22:40:26.424Z,63.35
2023-02-21T22:43:02.162Z,56.50
2023-02-21T22:45:33.334Z,48.77
2023-02-21T22:48:03.523Z,59.63
2023-02-21T22:50:37.116Z,36.10
2023-02-21T22:53:08.383Z,47.25
2023-02-21T22:55:38.281Z,51.03
2023-02-21T22:58:08.228Z,35.45
2023-02-21T23:00:38.279Z,50.33
2023-02-21T23:03:14.339Z,48.40
2023-02-21T23:05:44.050Z,44.30
2023-02-21T23:08:13.281Z,47.58
2023-02-21T23:10:40.715Z,31.35
2023-02-21T23:13:20.644Z,37.45
2023-02-21T23:15:48.308Z,39.33
2023-02-21T23:18:20.794Z,37.38
2023-02-21T23:20:56.594Z,33.55
2023-02-21T23:23:27.339Z,33.00
2023-02-21T23:25:59.237Z,28.85
2023-02-21T23:28:29.068Z,24.73
2023-02-21T23:30:58.220Z,27.33
2023-02-21T23:33:28.126Z,28.70
2023-02-21T23:35:56.870Z,28.98
2023-02-21T23:38:28.462Z,31.17
2023-02-21T23:40:58.281Z,34.13
2023-02-21T23:43:30.606Z,33.60
2023-02-21T23:45:59.254Z,32.03
2023-02-21T23:48:27.019Z,32.40
2023-02-21T23:50:58.312Z,29.77
2023-02-21T23:53:28.523Z,30.50
2023-02-21T23:55:57.862Z,34.33
2023-02-21T23:58:27.327Z,35.60
